createdAt,value
2022-10-12T00:01:13.713Z,5.00
2022-10-12T00:03:40.561Z,6.00
2022-10-12T00:06:14.816Z,5.57
2022-10-12T00:08:42.639Z,4.80
2022-10-12T00:11:13.550Z,5.07
2022-10-12T00:13:40.266Z,5.03
2022-10-12T00:16:09.140Z,5.03
2022-10-12T00:18:36.589Z,5.03
2022-10-12T00:21:07.147Z,5.77
2022-10-12T00:23:34.897Z,5.60
2022-10-12T00:26:05.895Z,4.67
2022-10-12T00:28:33.194Z,5.03
2022-10-12T00:31:00.286Z,5.27
2022-10-12T00:33:30.240Z,4.40
2022-10-12T00:35:57.055Z,5.13
2022-10-12T00:38:23.750Z,5.00
2022-10-12T00:40:50.730Z,5.37
2022-10-12T00:43:31.320Z,4.53
2022-10-12T00:46:01.586Z,4.53
2022-10-12T00:48:28.824Z,4.80
2022-10-12T00:50:57.699Z,4.53
2022-10-12T00:53:27.806Z,4.90
2022-10-12T00:55:59.347Z,4.13
2022-10-12T00:58:27.163Z,4.57
2022-10-12T01:00:53.919Z,4.07
2022-10-12T01:03:22.496Z,3.90
2022-10-12T01:05:49.370Z,4.63
2022-10-12T01:08:16.050Z,5.00
2022-10-12T01:10:42.695Z,4.10
2022-10-12T01:13:09.511Z,4.27
2022-10-12T01:15:44.661Z,4.60
2022-10-12T01:18:34.005Z,4.70
2022-10-12T01:21:18.419Z,4.40
2022-10-12T01:24:05.986Z,4.70
2022-10-12T01:26:51.437Z,5.17
2022-10-12T01:29:21.250Z,4.10
2022-10-12T01:31:59.951Z,4.30
2022-10-12T01:34:50.031Z,4.23
2022-10-12T01:37:45.410Z,3.97
2022-10-12T01:40:29.174Z,4.20
2022-10-12T01:42:57.979Z,3.90
2022-10-12T01:45:24.761Z,3.83
2022-10-12T01:47:53.860Z,4.50
2022-10-12T01:50:23.858Z,3.93
2022-10-12T01:53:16.598Z,4.30
2022-10-12T01:55:51.437Z,3.27
2022-10-12T01:58:42.192Z,4.23
2022-10-12T02:01:18.176Z,4.20
2022-10-12T02:03:44.941Z,4.00
2022-10-12T02:06:18.629Z,3.90
2022-10-12T02:09:31.775Z,3.77
2022-10-12T02:12:04.109Z,3.53
2022-10-12T02:14:38.816Z,3.67
2022-10-12T02:17:10.409Z,3.33
2022-10-12T02:19:41.823Z,4.83
2022-10-12T02:22:09.885Z,3.80
2022-10-12T02:24:40.072Z,4.10
2022-10-12T02:27:10.085Z,3.80
2022-10-12T02:29:39.842Z,3.50
2022-10-12T02:32:50.210Z,3.50
2022-10-12T02:35:32.039Z,3.50
2022-10-12T02:38:13.926Z,4.50
2022-10-12T02:40:51.124Z,4.20
2022-10-12T02:43:41.285Z,3.47
2022-10-12T02:46:10.504Z,3.80
2022-10-12T02:48:40.132Z,3.60
2022-10-12T02:51:08.701Z,3.90
2022-10-12T02:53:36.072Z,4.13
2022-10-12T02:56:10.729Z,3.37
2022-10-12T02:58:37.629Z,3.23
2022-10-12T03:01:05.100Z,3.80
2022-10-12T03:03:31.963Z,3.93
2022-10-12T03:05:59.002Z,4.63
2022-10-12T03:08:25.978Z,3.03
2022-10-12T03:10:52.695Z,4.10
2022-10-12T03:13:19.653Z,4.30
2022-10-12T03:15:46.427Z,4.07
2022-10-12T03:18:13.268Z,4.10
2022-10-12T03:20:39.946Z,4.30
2022-10-12T03:23:06.662Z,4.50
2022-10-12T03:25:33.499Z,4.13
2022-10-12T03:28:00.201Z,4.33
2022-10-12T03:30:26.971Z,5.37
2022-10-12T03:32:53.694Z,4.40
2022-10-12T03:35:20.385Z,4.40
2022-10-12T03:37:47.273Z,4.40
2022-10-12T03:40:14.404Z,4.80
2022-10-12T03:42:41.345Z,4.07
2022-10-12T03:45:09.246Z,4.80
2022-10-12T03:47:36.450Z,4.63
2022-10-12T03:50:04.052Z,4.03
2022-10-12T03:52:30.744Z,3.80
2022-10-12T03:54:57.670Z,3.77
2022-10-12T03:57:24.453Z,3.37
2022-10-12T03:59:51.418Z,4.13
2022-10-12T04:02:18.219Z,3.87
2022-10-12T04:04:44.914Z,4.33
2022-10-12T04:07:11.772Z,3.40
2022-10-12T04:09:38.525Z,4.47
2022-10-12T04:12:05.423Z,4.23
2022-10-12T04:14:32.089Z,3.90
2022-10-12T04:16:58.808Z,4.67
2022-10-12T04:19:25.494Z,4.10
2022-10-12T04:21:52.196Z,5.00
2022-10-12T04:24:19.189Z,3.90
2022-10-12T04:26:46.232Z,4.40
2022-10-12T04:29:14.340Z,3.90
2022-10-12T04:31:41.353Z,3.87
2022-10-12T04:34:09.849Z,4.33
2022-10-12T04:36:36.614Z,3.67
2022-10-12T04:39:03.559Z,3.90
2022-10-12T04:41:30.249Z,3.97
2022-10-12T04:43:57.070Z,4.60
2022-10-12T04:46:23.841Z,4.97
2022-10-12T04:48:50.511Z,5.67
2022-10-12T04:51:17.463Z,4.70
2022-10-12T04:53:44.291Z,4.87
2022-10-12T04:56:11.141Z,4.50
2022-10-12T04:58:37.919Z,5.93
2022-10-12T05:01:04.857Z,4.70
2022-10-12T05:03:31.829Z,4.83
2022-10-12T05:05:58.552Z,5.40
2022-10-12T05:08:25.617Z,5.23
2022-10-12T05:10:52.406Z,5.47
2022-10-12T05:13:19.322Z,4.87
2022-10-12T05:15:46.101Z,6.10
2022-10-12T05:18:12.887Z,4.07
2022-10-12T05:20:39.749Z,4.20
2022-10-12T05:23:06.423Z,4.07
2022-10-12T05:25:35.311Z,5.13
2022-10-12T05:28:02.260Z,5.33
2022-10-12T05:30:29.233Z,5.17
2022-10-12T05:32:55.953Z,4.57
2022-10-12T05:35:22.595Z,4.40
2022-10-12T05:37:49.590Z,4.30
2022-10-12T05:40:16.815Z,4.50
2022-10-12T05:42:44.661Z,3.80
2022-10-12T05:45:12.594Z,4.50
2022-10-12T05:47:40.668Z,4.30
2022-10-12T05:50:08.100Z,4.17
2022-10-12T05:52:34.951Z,4.77
2022-10-12T05:55:01.732Z,3.70
2022-10-12T05:57:28.493Z,5.13
2022-10-12T05:59:55.317Z,3.70
2022-10-12T06:02:22.083Z,4.43
2022-10-12T06:04:48.930Z,4.40
2022-10-12T06:07:15.748Z,3.53
2022-10-12T06:09:44.658Z,4.20
2022-10-12T06:12:11.421Z,3.90
2022-10-12T06:14:38.140Z,4.20
2022-10-12T06:17:04.883Z,4.33
2022-10-12T06:19:31.535Z,3.83
2022-10-12T06:21:58.518Z,8.50
2022-10-12T06:24:25.321Z,4.00
2022-10-12T06:26:51.979Z,4.00
2022-10-12T06:29:18.908Z,3.80
2022-10-12T06:31:51.194Z,4.17
2022-10-12T06:34:18.547Z,4.60
2022-10-12T06:36:45.491Z,4.60
2022-10-12T06:39:12.433Z,4.30
2022-10-12T06:41:39.126Z,4.67
2022-10-12T06:44:06.230Z,4.70
2022-10-12T06:46:33.048Z,7.40
2022-10-12T06:48:59.686Z,5.47
2022-10-12T06:51:26.419Z,5.40
2022-10-12T06:53:56.294Z,16.30
2022-10-12T06:56:23.338Z,14.83
2022-10-12T06:58:55.233Z,4.40
2022-10-12T07:01:22.264Z,3.80
2022-10-12T07:03:49.036Z,4.77
2022-10-12T07:06:16.070Z,4.17
2022-10-12T07:08:43.257Z,5.30
2022-10-12T07:11:13.519Z,4.87
2022-10-12T07:13:40.315Z,3.60
2022-10-12T07:16:07.618Z,4.10
2022-10-12T07:18:34.610Z,4.60
2022-10-12T07:21:02.729Z,3.80
2022-10-12T07:23:33.857Z,4.47
2022-10-12T07:26:01.081Z,4.13
2022-10-12T07:28:28.126Z,4.43
2022-10-12T07:30:54.885Z,4.40
2022-10-12T07:33:21.558Z,4.30
2022-10-12T07:36:13.181Z,4.23
2022-10-12T07:38:44.020Z,4.10
2022-10-12T07:41:11.667Z,4.73
2022-10-12T07:43:41.253Z,3.90
2022-10-12T07:46:08.425Z,4.00
2022-10-12T07:48:35.304Z,4.20
2022-10-12T07:51:06.162Z,4.77
2022-10-12T07:53:34.809Z,4.20
2022-10-12T07:56:03.677Z,4.00
2022-10-12T07:58:30.351Z,4.73
2022-10-12T08:01:03.553Z,3.97
2022-10-12T08:03:30.226Z,4.23
2022-10-12T08:05:56.928Z,3.93
2022-10-12T08:08:23.623Z,3.77
2022-10-12T08:10:50.319Z,4.03
2022-10-12T08:13:17.302Z,4.17
2022-10-12T08:15:52.158Z,4.43
2022-10-12T08:18:18.912Z,4.00
2022-10-12T08:20:45.621Z,4.13
2022-10-12T08:23:12.287Z,4.00
2022-10-12T08:25:39.066Z,4.10
2022-10-12T08:28:06.335Z,3.70
2022-10-12T08:30:33.845Z,4.27
2022-10-12T08:33:00.547Z,3.60
2022-10-12T08:35:27.275Z,3.93
2022-10-12T08:37:54.469Z,4.20
2022-10-12T08:40:32.040Z,5.03
2022-10-12T08:43:37.255Z,3.90
2022-10-12T08:46:05.863Z,4.13
2022-10-12T08:49:21.520Z,4.43
2022-10-12T08:51:56.706Z,4.10
2022-10-12T08:54:26.189Z,4.57
2022-10-12T08:56:57.110Z,3.70
2022-10-12T08:59:24.067Z,3.60
2022-10-12T09:01:56.892Z,4.70
2022-10-12T09:04:54.021Z,4.43
2022-10-12T09:07:31.910Z,4.60
2022-10-12T09:10:13.679Z,4.13
2022-10-12T09:13:23.105Z,5.03
2022-10-12T09:15:59.957Z,4.23
2022-10-12T09:18:41.078Z,4.07
2022-10-12T09:21:14.155Z,4.90
2022-10-12T09:23:42.563Z,4.63
2022-10-12T09:26:35.786Z,5.07
2022-10-12T09:29:13.842Z,4.60
2022-10-12T09:31:51.974Z,4.70
2022-10-12T09:34:19.619Z,4.47
2022-10-12T09:36:46.570Z,4.33
2022-10-12T09:39:18.751Z,5.37
2022-10-12T09:41:47.192Z,4.80
2022-10-12T09:44:16.887Z,4.77
2022-10-12T09:46:51.241Z,5.90
2022-10-12T09:49:17.982Z,5.27
2022-10-12T09:51:45.951Z,4.40
2022-10-12T09:54:21.818Z,4.83
2022-10-12T09:56:51.262Z,5.13
2022-10-12T09:59:35.020Z,5.30
2022-10-12T10:02:13.435Z,5.33
2022-10-12T10:04:41.430Z,4.80
2022-10-12T10:07:33.735Z,4.87
2022-10-12T10:10:10.296Z,5.37
2022-10-12T10:12:58.298Z,5.50
2022-10-12T10:15:35.594Z,6.07
2022-10-12T10:18:07.493Z,5.47
2022-10-12T10:20:44.949Z,5.47
2022-10-12T10:23:27.690Z,5.10
2022-10-12T10:26:07.052Z,5.20
2022-10-12T10:28:39.329Z,6.23
2022-10-12T10:31:21.917Z,5.03
2022-10-12T10:34:07.393Z,5.00
2022-10-12T10:36:40.454Z,5.30
2022-10-12T10:39:17.900Z,5.03
2022-10-12T10:41:45.017Z,4.73
2022-10-12T10:44:32.538Z,5.80
2022-10-12T10:47:04.125Z,5.00
2022-10-12T10:49:39.914Z,5.53
2022-10-12T10:52:18.182Z,4.73
2022-10-12T10:54:45.598Z,5.40
2022-10-12T10:57:22.967Z,6.50
2022-10-12T11:00:19.478Z,6.07
2022-10-12T11:02:54.426Z,5.60
2022-10-12T11:05:33.733Z,5.77
2022-10-12T11:08:06.196Z,5.17
2022-10-12T11:10:36.087Z,6.13
2022-10-12T11:13:10.611Z,6.37
2022-10-12T11:15:48.467Z,5.60
2022-10-12T11:18:18.845Z,5.67
2022-10-12T11:21:02.642Z,5.60
2022-10-12T11:23:41.459Z,6.00
2022-10-12T11:26:31.535Z,6.17
2022-10-12T11:29:00.550Z,13.33
2022-10-12T11:31:38.073Z,5.50
2022-10-12T11:34:13.283Z,5.47
2022-10-12T11:37:01.119Z,5.07
2022-10-12T11:39:39.782Z,5.07
2022-10-12T11:42:22.833Z,4.53
2022-10-12T11:44:50.548Z,5.43
2022-10-12T11:47:35.933Z,4.70
2022-10-12T11:50:28.559Z,5.83
2022-10-12T11:52:57.877Z,5.30
2022-10-12T11:55:32.227Z,5.33
2022-10-12T11:58:07.395Z,5.30
2022-10-12T12:01:09.402Z,4.60
2022-10-12T12:04:40.682Z,4.40
2022-10-12T12:07:40.935Z,5.00
2022-10-12T12:10:25.825Z,4.87
2022-10-12T12:13:14.537Z,4.70
2022-10-12T12:16:13.403Z,20.20
2022-10-12T12:19:14.193Z,5.73
2022-10-12T12:22:19.440Z,10.93
2022-10-12T12:25:14.206Z,5.20
2022-10-12T12:27:42.334Z,5.73
2022-10-12T12:30:18.062Z,6.60
2022-10-12T12:32:54.790Z,5.60
2022-10-12T12:35:31.687Z,6.23
2022-10-12T12:38:26.258Z,5.97
2022-10-12T12:41:07.122Z,5.87
2022-10-12T12:43:33.715Z,5.87
2022-10-12T12:46:03.395Z,5.90
2022-10-12T12:48:39.257Z,5.00
2022-10-12T12:51:25.029Z,5.40
2022-10-12T12:54:30.038Z,5.67
2022-10-12T12:57:14.873Z,5.80
2022-10-12T13:00:06.575Z,5.00
2022-10-12T13:03:02.019Z,4.90
2022-10-12T13:06:12.862Z,5.47
2022-10-12T13:09:20.835Z,5.67
2022-10-12T13:12:00.600Z,5.63
2022-10-12T13:15:02.055Z,4.73
2022-10-12T13:17:51.261Z,4.93
2022-10-12T13:20:22.248Z,5.17
2022-10-12T13:22:51.834Z,4.77
2022-10-12T13:25:34.714Z,4.50
2022-10-12T13:28:06.037Z,5.43
2022-10-12T13:30:35.808Z,5.20
2022-10-12T13:33:02.695Z,4.60
2022-10-12T13:35:51.326Z,5.27
2022-10-12T13:38:27.413Z,5.33
2022-10-12T13:41:08.324Z,4.17
2022-10-12T13:44:00.939Z,5.10
2022-10-12T13:46:44.563Z,4.07
2022-10-12T13:49:24.845Z,5.10
2022-10-12T13:51:57.558Z,4.40
2022-10-12T13:54:48.973Z,4.43
2022-10-12T13:57:21.552Z,4.00
2022-10-12T13:59:56.318Z,4.93
2022-10-12T14:02:26.255Z,5.70
2022-10-12T14:04:55.183Z,4.50
2022-10-12T14:07:30.155Z,5.00
2022-10-12T14:10:18.511Z,4.70
2022-10-12T14:12:46.863Z,4.13
2022-10-12T14:15:14.945Z,4.67
2022-10-12T14:17:47.098Z,4.00
2022-10-12T14:20:30.737Z,5.33
2022-10-12T14:22:59.864Z,4.50
2022-10-12T14:25:31.520Z,4.50
2022-10-12T14:28:03.680Z,4.60
2022-10-12T14:30:36.775Z,5.10
2022-10-12T14:33:13.906Z,4.20
2022-10-12T14:35:51.824Z,4.97
2022-10-12T14:38:41.837Z,3.90
2022-10-12T14:41:36.197Z,4.40
2022-10-12T14:44:23.294Z,4.07
2022-10-12T14:46:49.958Z,5.27
2022-10-12T14:49:38.930Z,5.00
2022-10-12T14:52:06.255Z,4.80
2022-10-12T14:54:32.939Z,4.03
2022-10-12T14:57:13.455Z,4.23
2022-10-12T14:59:40.623Z,4.70
2022-10-12T15:02:21.438Z,4.53
2022-10-12T15:04:49.173Z,4.80
2022-10-12T15:07:32.735Z,3.53
2022-10-12T15:10:00.520Z,4.10
2022-10-12T15:12:30.441Z,4.20
2022-10-12T15:15:01.161Z,3.93
2022-10-12T15:17:28.067Z,4.07
2022-10-12T15:19:54.793Z,4.07
2022-10-12T15:22:23.698Z,3.60
2022-10-12T15:24:51.805Z,3.47
2022-10-12T15:27:19.571Z,3.77
2022-10-12T15:29:48.103Z,4.43
2022-10-12T15:32:17.102Z,4.10
2022-10-12T15:34:46.810Z,3.83
2022-10-12T15:37:14.139Z,3.50
2022-10-12T15:39:42.667Z,4.10
2022-10-12T15:42:11.923Z,4.33
2022-10-12T15:44:41.185Z,4.63
2022-10-12T15:47:09.898Z,5.50
2022-10-12T15:49:36.823Z,5.43
2022-10-12T15:52:03.637Z,5.20
2022-10-12T15:54:30.379Z,3.90
2022-10-12T15:56:57.144Z,4.90
2022-10-12T15:59:24.748Z,3.80
2022-10-12T16:01:51.617Z,4.60
2022-10-12T16:04:19.112Z,5.50
2022-10-12T16:06:45.831Z,3.87
2022-10-12T16:09:12.832Z,4.20
2022-10-12T16:11:39.596Z,3.27
2022-10-12T16:14:06.721Z,12.80
2022-10-12T16:16:33.703Z,6.40
2022-10-12T16:19:00.625Z,4.80
2022-10-12T16:21:27.518Z,6.30
2022-10-12T16:23:54.265Z,4.07
2022-10-12T16:26:21.122Z,4.60
2022-10-12T16:28:47.911Z,5.17
2022-10-12T16:31:17.713Z,4.70
2022-10-12T16:33:45.063Z,4.60
2022-10-12T16:36:14.940Z,4.10
2022-10-12T16:38:42.728Z,4.37
2022-10-12T16:41:11.744Z,3.97
2022-10-12T16:43:39.146Z,3.97
2022-10-12T16:46:06.723Z,4.10
2022-10-12T16:48:34.151Z,10.50
2022-10-12T16:51:00.862Z,4.23
2022-10-12T16:53:27.681Z,4.60
2022-10-12T16:55:54.467Z,6.50
2022-10-12T16:58:21.660Z,5.67
2022-10-12T17:00:48.613Z,5.40
2022-10-12T17:03:15.475Z,5.00
2022-10-12T17:05:42.790Z,7.37
2022-10-12T17:08:15.065Z,28.93
2022-10-12T17:10:43.942Z,5.43
2022-10-12T17:13:13.435Z,4.97
2022-10-12T17:15:41.913Z,4.80
2022-10-12T17:18:09.040Z,4.40
2022-10-12T17:20:36.819Z,25.43
2022-10-12T17:23:03.774Z,5.90
2022-10-12T17:25:30.682Z,5.40
2022-10-12T17:27:57.826Z,5.93
2022-10-12T17:30:25.046Z,5.10
2022-10-12T17:32:51.813Z,5.10
2022-10-12T17:35:18.599Z,5.00
2022-10-12T17:37:45.378Z,5.73
2022-10-12T17:40:12.884Z,5.90
2022-10-12T17:42:39.588Z,6.30
2022-10-12T17:45:06.870Z,6.37
2022-10-12T17:47:33.696Z,6.33
2022-10-12T17:50:00.642Z,5.40
2022-10-12T17:52:27.485Z,6.70
2022-10-12T17:54:54.243Z,6.27
2022-10-12T17:57:21.260Z,6.00
2022-10-12T17:59:48.180Z,6.90
2022-10-12T18:02:14.953Z,13.13
2022-10-12T18:04:41.803Z,9.13
2022-10-12T18:07:08.546Z,8.37
2022-10-12T18:09:35.346Z,7.50
2022-10-12T18:12:02.158Z,7.57
2022-10-12T18:14:29.005Z,7.37
2022-10-12T18:16:57.576Z,7.07
2022-10-12T18:19:25.046Z,7.37
2022-10-12T18:21:51.807Z,7.83
2022-10-12T18:24:18.778Z,7.00
2022-10-12T18:26:47.325Z,7.00
2022-10-12T18:29:14.524Z,7.40
2022-10-12T18:31:41.772Z,7.70
2022-10-12T18:34:08.956Z,8.17
2022-10-12T18:36:35.730Z,6.97
2022-10-12T18:39:03.984Z,8.60
2022-10-12T18:41:31.408Z,8.03
2022-10-12T18:43:59.703Z,8.67
2022-10-12T18:46:28.538Z,10.47
2022-10-12T18:48:56.161Z,10.07
2022-10-12T18:51:26.687Z,10.87
2022-10-12T18:53:54.197Z,23.00
2022-10-12T18:56:21.274Z,12.80
2022-10-12T18:58:48.646Z,11.73
2022-10-12T19:01:18.440Z,11.10
2022-10-12T19:03:45.990Z,11.90
2022-10-12T19:06:16.059Z,11.60
2022-10-12T19:08:45.632Z,11.20
2022-10-12T19:11:14.183Z,12.33
2022-10-12T19:13:41.788Z,9.73
2022-10-12T19:16:13.780Z,10.97
2022-10-12T19:18:41.708Z,10.60
2022-10-12T19:21:14.151Z,9.57
2022-10-12T19:23:41.434Z,9.80
2022-10-12T19:26:11.032Z,9.50
2022-10-12T19:28:38.248Z,9.10
2022-10-12T19:31:14.440Z,8.40
2022-10-12T19:33:42.213Z,9.13
2022-10-12T19:36:10.814Z,9.77
2022-10-12T19:38:38.188Z,9.30
2022-10-12T19:41:05.132Z,8.33
2022-10-12T19:43:39.150Z,8.13
2022-10-12T19:46:11.949Z,8.53
2022-10-12T19:48:39.937Z,8.83
2022-10-12T19:51:10.774Z,8.37
2022-10-12T19:53:38.727Z,8.60
2022-10-12T19:56:08.734Z,8.60
2022-10-12T19:58:35.836Z,8.37
2022-10-12T20:01:02.586Z,9.00
2022-10-12T20:03:29.743Z,8.17
2022-10-12T20:05:56.624Z,8.83
2022-10-12T20:08:23.707Z,7.70
2022-10-12T20:10:50.433Z,8.33
2022-10-12T20:13:17.152Z,8.77
2022-10-12T20:15:51.362Z,9.20
2022-10-12T20:18:19.360Z,10.13
2022-10-12T20:20:46.200Z,9.03
2022-10-12T20:23:13.292Z,9.80
2022-10-12T20:25:45.307Z,9.90
2022-10-12T20:28:15.629Z,9.53
2022-10-12T20:30:42.773Z,8.83
2022-10-12T20:33:10.129Z,10.33
2022-10-12T20:35:37.244Z,9.93
2022-10-12T20:38:04.305Z,8.57
2022-10-12T20:40:31.083Z,10.30
2022-10-12T20:42:57.843Z,8.90
2022-10-12T20:45:24.637Z,9.60
2022-10-12T20:47:51.407Z,9.00
2022-10-12T20:50:18.322Z,9.77
2022-10-12T20:52:46.723Z,9.50
2022-10-12T20:55:13.618Z,9.77
2022-10-12T20:57:40.296Z,9.47
2022-10-12T21:00:07.772Z,10.40
2022-10-12T21:02:34.541Z,9.90
2022-10-12T21:05:01.277Z,9.83
2022-10-12T21:07:28.197Z,10.10
2022-10-12T21:09:54.895Z,10.13
2022-10-12T21:12:21.923Z,9.97
2022-10-12T21:14:48.785Z,9.60
2022-10-12T21:17:15.995Z,10.40
2022-10-12T21:19:42.746Z,9.43
2022-10-12T21:22:10.102Z,9.30
2022-10-12T21:24:36.952Z,10.17
2022-10-12T21:27:04.856Z,9.47
2022-10-12T21:29:31.510Z,9.77
2022-10-12T21:31:58.319Z,10.07
2022-10-12T21:34:25.219Z,10.30
2022-10-12T21:36:51.986Z,9.80
2022-10-12T21:39:18.687Z,9.50
2022-10-12T21:41:45.471Z,8.60
2022-10-12T21:44:12.783Z,9.00
2022-10-12T21:46:40.187Z,9.97
2022-10-12T21:49:08.360Z,8.90
2022-10-12T21:51:36.734Z,9.13
2022-10-12T21:54:05.026Z,10.10
2022-10-12T21:56:35.121Z,9.10
2022-10-12T21:59:03.095Z,9.50
2022-10-12T22:01:35.422Z,8.47
2022-10-12T22:04:05.227Z,9.03
2022-10-12T22:06:32.570Z,10.17
2022-10-12T22:09:05.710Z,9.57
2022-10-12T22:11:34.335Z,9.77
2022-10-12T22:14:05.158Z,9.47
2022-10-12T22:16:32.580Z,9.67
2022-10-12T22:19:01.250Z,9.50
2022-10-12T22:21:30.291Z,9.53
2022-10-12T22:23:57.115Z,8.53
2022-10-12T22:26:24.770Z,9.60
2022-10-12T22:28:51.541Z,9.60
2022-10-12T22:31:19.715Z,11.20
2022-10-12T22:33:46.711Z,11.27
2022-10-12T22:36:14.672Z,10.60
2022-10-12T22:38:41.874Z,11.27
2022-10-12T22:41:14.951Z,10.37
2022-10-12T22:43:41.958Z,10.73
2022-10-12T22:46:08.769Z,12.00
2022-10-12T22:48:36.808Z,11.80
2022-10-12T22:51:05.082Z,10.90
2022-10-12T22:53:32.477Z,13.80
2022-10-12T22:56:01.617Z,10.30
2022-10-12T22:58:29.305Z,11.00
2022-10-12T23:01:07.767Z,12.63
2022-10-12T23:03:35.508Z,11.63
2022-10-12T23:06:02.844Z,11.13
2022-10-12T23:08:29.656Z,10.67
2022-10-12T23:11:04.786Z,11.00
2022-10-12T23:13:32.800Z,10.67
2022-10-12T23:16:11.538Z,11.27
2022-10-12T23:18:39.089Z,10.87
2022-10-12T23:21:08.160Z,10.20
2022-10-12T23:23:36.300Z,10.47
2022-10-12T23:26:09.178Z,12.60
2022-10-12T23:28:36.141Z,10.60
2022-10-12T23:31:04.935Z,11.33
2022-10-12T23:33:31.992Z,11.60
2022-10-12T23:36:05.844Z,11.10
2022-10-12T23:38:34.120Z,10.83
2022-10-12T23:41:00.973Z,11.37
2022-10-12T23:43:27.969Z,10.93
2022-10-12T23:45:55.466Z,11.20
2022-10-12T23:48:23.261Z,10.53
2022-10-12T23:50:51.770Z,11.37
2022-10-12T23:53:20.070Z,10.23
2022-10-12T23:55:47.240Z,11.50
2022-10-12T23:58:14.531Z,11.83
